sensor_id;sensor_type;location;lat;lon;timestamp;pressure;altitude;pressure_sealevel;temperature;humidity
42859;BME280;28505;56.970;40.998;2023-04-12T00:04:11;100297.09;;;0.53;100.00
42859;BME280;28505;56.970;40.998;2023-04-12T00:09:35;100276.69;;;0.28;100.00
42859;BME280;28505;56.970;40.998;2023-04-12T00:14:59;100288.66;;;0.37;100.00
42859;BME280;28505;56.970;40.998;2023-04-12T00:20:23;100293.72;;;0.39;100.00
42859;BME280;28505;56.970;40.998;2023-04-12T00:25:45;100284.94;;;0.20;100.00
42859;BME280;28505;56.970;40.998;2023-04-12T00:31:07;100302.03;;;0.24;100.00
42859;BME280;28505;56.970;40.998;2023-04-12T00:36:29;100297.75;;;0.23;100.00
42859;BME280;28505;56.970;40.998;2023-04-12T00:41:54;100257.00;;;-0.08;100.00
42859;BME280;28505;56.970;40.998;2023-04-12T00:47:36;100260.69;;;-0.09;100.00
42859;BME280;28505;56.970;40.998;2023-04-12T00:53:06;100286.66;;;0.08;100.00
42859;BME280;28505;56.970;40.998;2023-04-12T00:58:57;100299.63;;;0.16;100.00
42859;BME280;28505;56.970;40.998;2023-04-12T01:05:09;100287.13;;;-0.02;100.00
42859;BME280;28505;56.970;40.998;2023-04-12T01:11:14;100298.34;;;0.00;100.00
42859;BME280;28505;56.970;40.998;2023-04-12T01:16:56;100252.09;;;-0.29;100.00
42859;BME280;28505;56.970;40.998;2023-04-12T01:23:05;100288.28;;;-0.16;100.00
42859;BME280;28505;56.970;40.998;2023-04-12T01:28:48;100270.41;;;-0.28;100.00
42859;BME280;28505;56.970;40.998;2023-04-12T01:34:19;100260.28;;;-0.37;100.00
42859;BME280;28505;56.970;40.998;2023-04-12T01:39:49;100288.75;;;-0.26;100.00
42859;BME280;28505;56.970;40.998;2023-04-12T01:45:11;100300.53;;;-0.22;100.00
42859;BME280;28505;56.970;40.998;2023-04-12T01:51:04;100304.19;;;-0.23;100.00
42859;BME280;28505;56.970;40.998;2023-04-12T01:56:30;100283.91;;;-0.36;100.00
42859;BME280;28505;56.970;40.998;2023-04-12T02:01:57;100287.78;;;-0.38;100.00
42859;BME280;28505;56.970;40.998;2023-04-12T02:07:20;100281.81;;;-0.27;100.00
42859;BME280;28505;56.970;40.998;2023-04-12T02:12:43;100286.25;;;-0.21;100.00
42859;BME280;28505;56.970;40.998;2023-04-12T02:18:05;100284.41;;;-0.20;100.00
42859;BME280;28505;56.970;40.998;2023-04-12T02:23:28;100282.41;;;-0.25;100.00
42859;BME280;28505;56.970;40.998;2023-04-12T02:28:51;100277.53;;;-0.28;100.00
42859;BME280;28505;56.970;40.998;2023-04-12T02:34:15;100278.34;;;-0.28;100.00
42859;BME280;28505;56.970;40.998;2023-04-12T02:39:44;100281.22;;;-0.29;100.00
42859;BME280;28505;56.970;40.998;2023-04-12T02:45:09;100262.53;;;-0.41;100.00
42859;BME280;28505;56.970;40.998;2023-04-12T02:50:35;100282.22;;;-0.30;100.00
42859;BME280;28505;56.970;40.998;2023-04-12T02:56:06;100266.94;;;-0.28;100.00
42859;BME280;28505;56.970;40.998;2023-04-12T03:01:30;100262.88;;;-0.31;100.00
42859;BME280;28505;56.970;40.998;2023-04-12T03:07:09;100279.09;;;-0.20;100.00
42859;BME280;28505;56.970;40.998;2023-04-12T03:12:41;100279.38;;;-0.04;100.00
42859;BME280;28505;56.970;40.998;2023-04-12T03:18:14;100276.19;;;0.13;100.00
42859;BME280;28505;56.970;40.998;2023-04-12T03:23:41;100281.56;;;0.31;100.00
42859;BME280;28505;56.970;40.998;2023-04-12T03:29:10;100276.56;;;0.41;100.00
42859;BME280;28505;56.970;40.998;2023-04-12T03:34:35;100285.00;;;0.57;100.00
42859;BME280;28505;56.970;40.998;2023-04-12T03:40:05;100291.34;;;0.74;100.00
42859;BME280;28505;56.970;40.998;2023-04-12T03:45:28;100293.03;;;0.68;100.00
42859;BME280;28505;56.970;40.998;2023-04-12T03:50:54;100290.19;;;0.70;100.00
42859;BME280;28505;56.970;40.998;2023-04-12T03:56:18;100300.34;;;0.91;100.00
42859;BME280;28505;56.970;40.998;2023-04-12T04:01:45;100286.91;;;1.23;100.00
42859;BME280;28505;56.970;40.998;2023-04-12T04:07:10;100299.31;;;1.59;100.00
42859;BME280;28505;56.970;40.998;2023-04-12T04:12:37;100299.28;;;1.78;100.00
42859;BME280;28505;56.970;40.998;2023-04-12T04:18:03;100283.34;;;1.90;100.00
42859;BME280;28505;56.970;40.998;2023-04-12T04:23:27;100284.91;;;2.21;100.00
42859;BME280;28505;56.970;40.998;2023-04-12T04:29:02;100294.53;;;3.21;100.00
42859;BME280;28505;56.970;40.998;2023-04-12T04:34:32;100262.84;;;3.65;100.00
42859;BME280;28505;56.970;40.998;2023-04-12T04:40:03;100299.44;;;4.49;100.00
42859;BME280;28505;56.970;40.998;2023-04-12T04:45:32;100299.88;;;5.01;100.00
42859;BME280;28505;56.970;40.998;2023-04-12T04:50:54;100286.59;;;5.55;100.00
42859;BME280;28505;56.970;40.998;2023-04-12T04:56:17;100279.81;;;6.29;100.00
42859;BME280;28505;56.970;40.998;2023-04-12T05:01:44;100287.09;;;6.86;100.00
42859;BME280;28505;56.970;40.998;2023-04-12T05:07:10;100288.22;;;6.90;100.00
42859;BME280;28505;56.970;40.998;2023-04-12T05:12:36;100282.22;;;6.73;100.00
42859;BME280;28505;56.970;40.998;2023-04-12T05:17:59;100285.78;;;6.84;100.00
42859;BME280;28505;56.970;40.998;2023-04-12T05:23:23;100292.91;;;7.20;100.00
42859;BME280;28505;56.970;40.998;2023-04-12T05:28:45;100295.19;;;7.74;100.00
42859;BME280;28505;56.970;40.998;2023-04-12T05:34:09;100284.47;;;8.20;100.00
42859;BME280;28505;56.970;40.998;2023-04-12T05:39:38;100268.00;;;8.94;100.00
42859;BME280;28505;56.970;40.998;2023-04-12T05:45:08;100289.34;;;9.79;100.00
42859;BME280;28505;56.970;40.998;2023-04-12T05:50:31;100278.44;;;10.34;100.00
42859;BME280;28505;56.970;40.998;2023-04-12T05:55:53;100293.06;;;11.05;100.00
42859;BME280;28505;56.970;40.998;2023-04-12T06:01:17;100288.91;;;11.36;100.00
42859;BME280;28505;56.970;40.998;2023-04-12T06:06:40;100283.53;;;11.74;100.00
42859;BME280;28505;56.970;40.998;2023-04-12T06:12:04;100286.72;;;12.14;100.00
42859;BME280;28505;56.970;40.998;2023-04-12T06:17:29;100281.25;;;11.81;100.00
42859;BME280;28505;56.970;40.998;2023-04-12T06:22:51;100287.28;;;12.30;100.00
42859;BME280;28505;56.970;40.998;2023-04-12T06:28:14;100289.63;;;12.50;100.00
42859;BME280;28505;56.970;40.998;2023-04-12T06:33:43;100300.28;;;12.88;100.00
42859;BME280;28505;56.970;40.998;2023-04-12T06:39:07;100299.28;;;13.39;100.00
42859;BME280;28505;56.970;40.998;2023-04-12T06:44:30;100285.84;;;13.48;96.62
42859;BME280;28505;56.970;40.998;2023-04-12T06:49:54;100295.13;;;13.92;91.40
42859;BME280;28505;56.970;40.998;2023-04-12T06:55:18;100301.25;;;14.20;82.98
42859;BME280;28505;56.970;40.998;2023-04-12T07:00:40;100288.00;;;14.49;85.12
42859;BME280;28505;56.970;40.998;2023-04-12T07:06:03;100291.84;;;14.80;73.76
42859;BME280;28505;56.970;40.998;2023-04-12T07:11:44;100286.00;;;14.95;73.14
42859;BME280;28505;56.970;40.998;2023-04-12T07:17:06;100284.31;;;15.08;66.44
42859;BME280;28505;56.970;40.998;2023-04-12T07:22:28;100284.63;;;15.23;65.97
42859;BME280;28505;56.970;40.998;2023-04-12T07:27:51;100274.75;;;15.28;63.20
42859;BME280;28505;56.970;40.998;2023-04-12T07:33:13;100275.84;;;15.27;63.32
42859;BME280;28505;56.970;40.998;2023-04-12T07:38:40;100269.50;;;15.31;64.71
42859;BME280;28505;56.970;40.998;2023-04-12T07:44:02;100272.34;;;15.26;63.59
42859;BME280;28505;56.970;40.998;2023-04-12T07:49:25;100278.63;;;15.44;60.20
42859;BME280;28505;56.970;40.998;2023-04-12T07:54:48;100275.25;;;15.56;58.41
42859;BME280;28505;56.970;40.998;2023-04-12T08:00:12;100260.09;;;15.55;58.95
42859;BME280;28505;56.970;40.998;2023-04-12T08:05:34;100264.91;;;15.75;57.83
42859;BME280;28505;56.970;40.998;2023-04-12T08:10:57;100269.88;;;15.90;57.07
42859;BME280;28505;56.970;40.998;2023-04-12T08:16:19;100260.09;;;15.98;59.07
42859;BME280;28505;56.970;40.998;2023-04-12T08:21:41;100266.03;;;16.09;55.60
42859;BME280;28505;56.970;40.998;2023-04-12T08:27:04;100266.81;;;15.92;55.28
42859;BME280;28505;56.970;40.998;2023-04-12T08:32:26;100265.06;;;15.87;55.70
42859;BME280;28505;56.970;40.998;2023-04-12T08:37:48;100256.44;;;15.85;50.59
42859;BME280;28505;56.970;40.998;2023-04-12T08:43:27;100263.75;;;15.41;51.60
42859;BME280;28505;56.970;40.998;2023-04-12T08:48:50;100252.38;;;15.22;54.31
42859;BME280;28505;56.970;40.998;2023-04-12T08:54:15;100249.63;;;15.05;54.77
42859;BME280;28505;56.970;40.998;2023-04-12T08:59:38;100245.00;;;15.05;55.95
42859;BME280;28505;56.970;40.998;2023-04-12T09:05:04;100240.59;;;15.61;55.91
42859;BME280;28505;56.970;40.998;2023-04-12T09:10:34;100238.16;;;16.12;55.51
42859;BME280;28505;56.970;40.998;2023-04-12T09:15:58;100224.16;;;16.48;55.83
42859;BME280;28505;56.970;40.998;2023-04-12T09:21:20;100222.03;;;16.54;52.13
42859;BME280;28505;56.970;40.998;2023-04-12T09:26:42;100201.28;;;16.70;54.79
42859;BME280;28505;56.970;40.998;2023-04-12T09:32:07;100211.53;;;16.82;51.89
42859;BME280;28505;56.970;40.998;2023-04-12T09:37:30;100194.16;;;16.57;51.79
42859;BME280;28505;56.970;40.998;2023-04-12T09:42:52;100181.63;;;16.35;52.94
42859;BME280;28505;56.970;40.998;2023-04-12T09:48:18;100183.06;;;16.32;52.33
42859;BME280;28505;56.970;40.998;2023-04-12T09:53:45;100194.66;;;16.50;52.93
42859;BME280;28505;56.970;40.998;2023-04-12T09:59:10;100177.50;;;16.20;52.38
42859;BME280;28505;56.970;40.998;2023-04-12T10:04:38;100164.19;;;15.72;51.75
42859;BME280;28505;56.970;40.998;2023-04-12T10:10:02;100185.13;;;15.54;49.63
42859;BME280;28505;56.970;40.998;2023-04-12T10:15:33;100149.03;;;15.18;50.18
42859;BME280;28505;56.970;40.998;2023-04-12T10:21:05;100172.03;;;15.21;49.50
42859;BME280;28505;56.970;40.998;2023-04-12T10:26:27;100173.75;;;15.17;50.08
42859;BME280;28505;56.970;40.998;2023-04-12T10:32:44;100158.28;;;15.26;48.00
42859;BME280;28505;56.970;40.998;2023-04-12T10:38:02;100159.06;;;15.27;49.34
42859;BME280;28505;56.970;40.998;2023-04-12T10:43:39;100176.34;;;15.57;50.44
42859;BME280;28505;56.970;40.998;2023-04-12T10:49:11;100170.06;;;15.91;48.91
42859;BME280;28505;56.970;40.998;2023-04-12T10:54:36;100162.47;;;16.23;49.89
42859;BME280;28505;56.970;40.998;2023-04-12T11:00:00;100158.59;;;16.24;49.20
42859;BME280;28505;56.970;40.998;2023-04-12T11:05:25;100160.19;;;16.25;49.64
42859;BME280;28505;56.970;40.998;2023-04-12T11:11:03;100146.50;;;16.12;48.97
42859;BME280;28505;56.970;40.998;2023-04-12T11:16:30;100125.91;;;16.03;48.96
42859;BME280;28505;56.970;40.998;2023-04-12T11:21:53;100124.25;;;16.10;48.50
42859;BME280;28505;56.970;40.998;2023-04-12T11:27:15;100122.03;;;16.04;47.50
42859;BME280;28505;56.970;40.998;2023-04-12T11:32:38;100127.50;;;16.04;48.81
42859;BME280;28505;56.970;40.998;2023-04-12T11:38:03;100118.38;;;16.00;48.67
42859;BME280;28505;56.970;40.998;2023-04-12T11:43:19;100091.22;;;15.91;48.84
42859;BME280;28505;56.970;40.998;2023-04-12T11:48:44;100103.41;;;16.23;48.14
42859;BME280;28505;56.970;40.998;2023-04-12T11:54:07;100088.81;;;16.28;48.81
42859;BME280;28505;56.970;40.998;2023-04-12T11:59:33;100075.31;;;16.40;48.38
42859;BME280;28505;56.970;40.998;2023-04-12T12:04:55;100079.81;;;16.66;49.12
42859;BME280;28505;56.970;40.998;2023-04-12T12:10:18;100085.56;;;16.64;47.66
42859;BME280;28505;56.970;40.998;2023-04-12T12:16:06;100085.50;;;16.73;46.45
42859;BME280;28505;56.970;40.998;2023-04-12T12:21:30;100075.03;;;16.83;45.70
42859;BME280;28505;56.970;40.998;2023-04-12T12:26:53;100071.00;;;16.90;45.85
42859;BME280;28505;56.970;40.998;2023-04-12T12:32:17;100063.75;;;16.94;45.17
42859;BME280;28505;56.970;40.998;2023-04-12T12:37:53;100062.63;;;16.95;46.11
42859;BME280;28505;56.970;40.998;2023-04-12T12:43:20;100056.53;;;16.98;44.80
42859;BME280;28505;56.970;40.998;2023-04-12T12:48:43;100059.81;;;17.03;45.14
42859;BME280;28505;56.970;40.998;2023-04-12T12:54:05;100041.66;;;16.95;43.91
42859;BME280;28505;56.970;40.998;2023-04-12T12:59:29;100044.97;;;17.01;44.06
42859;BME280;28505;56.970;40.998;2023-04-12T13:04:53;100047.94;;;16.87;42.75
42859;BME280;28505;56.970;40.998;2023-04-12T13:10:17;99997.09;;;16.58;43.54
42859;BME280;28505;56.970;40.998;2023-04-12T13:28:11;100013.13;;;16.30;45.50
42859;BME280;28505;56.970;40.998;2023-04-12T13:39:30;100006.53;;;16.31;45.95
42859;BME280;28505;56.970;40.998;2023-04-12T13:44:54;100012.34;;;16.29;45.62
42859;BME280;28505;56.970;40.998;2023-04-12T13:50:19;100011.31;;;16.13;44.93
42859;BME280;28505;56.970;40.998;2023-04-12T13:55:41;100000.88;;;15.85;45.56
42859;BME280;28505;56.970;40.998;2023-04-12T14:01:05;100007.97;;;15.78;45.03
42859;BME280;28505;56.970;40.998;2023-04-12T14:06:29;99983.69;;;15.64;44.88
42859;BME280;28505;56.970;40.998;2023-04-12T14:11:54;99988.66;;;15.71;43.36
42859;BME280;28505;56.970;40.998;2023-04-12T14:17:18;99985.59;;;15.72;43.80
42859;BME280;28505;56.970;40.998;2023-04-12T14:22:48;99970.44;;;15.71;43.15
42859;BME280;28505;56.970;40.998;2023-04-12T14:28:15;99980.94;;;15.73;42.77
42859;BME280;28505;56.970;40.998;2023-04-12T14:33:44;99975.72;;;15.59;42.92
42859;BME280;28505;56.970;40.998;2023-04-12T14:45:13;99960.00;;;15.35;43.75
42859;BME280;28505;56.970;40.998;2023-04-12T14:50:39;100006.31;;;15.47;44.69
42859;BME280;28505;56.970;40.998;2023-04-12T14:56:03;99963.91;;;15.08;44.94
42859;BME280;28505;56.970;40.998;2023-04-12T15:01:35;100005.88;;;15.10;45.60
42859;BME280;28505;56.970;40.998;2023-04-12T15:06:58;99963.34;;;14.59;46.23
42859;BME280;28505;56.970;40.998;2023-04-12T15:12:21;99951.19;;;14.39;46.48
42859;BME280;28505;56.970;40.998;2023-04-12T15:17:44;99959.75;;;14.15;46.75
42859;BME280;28505;56.970;40.998;2023-04-12T15:23:12;100009.03;;;14.17;47.42
42859;BME280;28505;56.970;40.998;2023-04-12T15:28:40;99987.88;;;13.79;47.90
42859;BME280;28505;56.970;40.998;2023-04-12T15:34:03;99965.88;;;13.32;48.21
42859;BME280;28505;56.970;40.998;2023-04-12T15:39:28;100008.69;;;13.30;48.38
42859;BME280;28505;56.970;40.998;2023-04-12T15:44:50;100022.69;;;13.09;48.85
42859;BME280;28505;56.970;40.998;2023-04-12T15:50:12;100011.13;;;12.73;49.45
42859;BME280;28505;56.970;40.998;2023-04-12T15:55:35;99994.78;;;12.41;50.15
42859;BME280;28505;56.970;40.998;2023-04-12T16:00:57;100020.88;;;12.24;50.63
42859;BME280;28505;56.970;40.998;2023-04-12T16:06:21;100008.69;;;11.85;51.11
42859;BME280;28505;56.970;40.998;2023-04-12T16:11:45;100020.44;;;11.61;51.87
42859;BME280;28505;56.970;40.998;2023-04-12T16:17:10;100034.59;;;11.39;52.24
42859;BME280;28505;56.970;40.998;2023-04-12T16:22:33;100006.88;;;11.01;52.52
42859;BME280;28505;56.970;40.998;2023-04-12T16:27:57;100013.03;;;10.88;52.83
42859;BME280;28505;56.970;40.998;2023-04-12T16:33:23;100023.19;;;10.77;53.31
42859;BME280;28505;56.970;40.998;2023-04-12T16:38:46;100022.75;;;10.51;53.83
42859;BME280;28505;56.970;40.998;2023-04-12T16:44:15;100014.75;;;10.22;54.64
42859;BME280;28505;56.970;40.998;2023-04-12T16:49:40;100006.00;;;9.87;55.77
42859;BME280;28505;56.970;40.998;2023-04-12T16:55:06;100019.44;;;9.68;56.33
42859;BME280;28505;56.970;40.998;2023-04-12T17:00:36;100014.31;;;9.37;56.78
42859;BME280;28505;56.970;40.998;2023-04-12T17:06:03;100004.88;;;9.11;57.56
42859;BME280;28505;56.970;40.998;2023-04-12T17:11:32;100009.09;;;8.88;58.14
42859;BME280;28505;56.970;40.998;2023-04-12T17:17:02;100010.06;;;8.63;59.09
42859;BME280;28505;56.970;40.998;2023-04-12T17:22:30;100012.34;;;8.46;59.31
42859;BME280;28505;56.970;40.998;2023-04-12T17:27:59;100008.13;;;8.24;60.60
42859;BME280;28505;56.970;40.998;2023-04-12T17:33:33;100006.03;;;8.11;61.01
42859;BME280;28505;56.970;40.998;2023-04-12T17:39:02;99988.72;;;7.78;61.55
42859;BME280;28505;56.970;40.998;2023-04-12T17:44:36;99991.47;;;7.62;62.42
42859;BME280;28505;56.970;40.998;2023-04-12T17:50:04;99998.72;;;7.46;63.06
42859;BME280;28505;56.970;40.998;2023-04-12T17:55:35;100019.94;;;7.43;64.60
42859;BME280;28505;56.970;40.998;2023-04-12T18:01:00;100049.44;;;7.43;65.40
42859;BME280;28505;56.970;40.998;2023-04-12T18:06:23;100052.66;;;7.24;66.26
42859;BME280;28505;56.970;40.998;2023-04-12T18:11:45;100038.44;;;7.14;67.28
42859;BME280;28505;56.970;40.998;2023-04-12T18:17:09;100034.16;;;6.97;67.95
42859;BME280;28505;56.970;40.998;2023-04-12T18:22:31;100042.97;;;6.77;70.21
42859;BME280;28505;56.970;40.998;2023-04-12T18:27:53;100039.97;;;6.64;70.55
42859;BME280;28505;56.970;40.998;2023-04-12T18:33:16;100042.13;;;6.51;71.54
42859;BME280;28505;56.970;40.998;2023-04-12T18:38:42;100031.31;;;6.31;71.74
42859;BME280;28505;56.970;40.998;2023-04-12T18:44:04;100047.88;;;6.18;74.04
42859;BME280;28505;56.970;40.998;2023-04-12T18:49:29;100050.00;;;6.05;74.36
42859;BME280;28505;56.970;40.998;2023-04-12T18:54:51;100065.16;;;5.95;75.79
42859;BME280;28505;56.970;40.998;2023-04-12T19:00:14;100039.59;;;5.72;76.27
42859;BME280;28505;56.970;40.998;2023-04-12T19:05:37;100057.78;;;5.70;76.55
42859;BME280;28505;56.970;40.998;2023-04-12T19:10:59;100063.88;;;5.60;77.35
42859;BME280;28505;56.970;40.998;2023-04-12T19:16:22;100058.06;;;5.36;79.55
42859;BME280;28505;56.970;40.998;2023-04-12T19:21:44;100060.94;;;5.24;80.80
42859;BME280;28505;56.970;40.998;2023-04-12T19:27:07;100061.28;;;5.01;82.74
42859;BME280;28505;56.970;40.998;2023-04-12T19:32:29;100044.34;;;4.90;83.12
42859;BME280;28505;56.970;40.998;2023-04-12T19:37:51;100056.84;;;4.84;86.20
42859;BME280;28505;56.970;40.998;2023-04-12T19:43:16;100042.69;;;4.57;88.09
42859;BME280;28505;56.970;40.998;2023-04-12T19:48:41;100058.16;;;4.55;88.33
42859;BME280;28505;56.970;40.998;2023-04-12T19:54:03;100060.16;;;4.42;89.61
42859;BME280;28505;56.970;40.998;2023-04-12T19:59:25;100062.91;;;4.26;92.11
42859;BME280;28505;56.970;40.998;2023-04-12T20:04:52;100059.59;;;4.18;93.72
42859;BME280;28505;56.970;40.998;2023-04-12T20:10:14;100069.72;;;4.16;93.80
42859;BME280;28505;56.970;40.998;2023-04-12T20:15:36;100071.69;;;4.04;94.29
42859;BME280;28505;56.970;40.998;2023-04-12T20:20:59;100072.13;;;3.96;94.33
42859;BME280;28505;56.970;40.998;2023-04-12T20:26:21;100078.50;;;3.95;93.65
42859;BME280;28505;56.970;40.998;2023-04-12T20:31:43;100075.56;;;3.74;96.24
42859;BME280;28505;56.970;40.998;2023-04-12T20:37:08;100093.50;;;3.62;99.17
42859;BME280;28505;56.970;40.998;2023-04-12T20:42:33;100060.00;;;3.33;98.48
42859;BME280;28505;56.970;40.998;2023-04-12T20:48:02;100078.31;;;3.46;98.53
42859;BME280;28505;56.970;40.998;2023-04-12T20:53:29;100074.63;;;3.30;100.00
42859;BME280;28505;56.970;40.998;2023-04-12T20:58:59;100083.81;;;3.22;100.00
42859;BME280;28505;56.970;40.998;2023-04-12T21:04:31;100075.56;;;3.07;100.00
42859;BME280;28505;56.970;40.998;2023-04-12T21:09:57;100076.03;;;3.04;100.00
42859;BME280;28505;56.970;40.998;2023-04-12T21:15:26;100077.25;;;2.96;100.00
42859;BME280;28505;56.970;40.998;2023-04-12T21:20:57;100082.66;;;2.85;100.00
42859;BME280;28505;56.970;40.998;2023-04-12T21:26:20;100093.38;;;2.90;100.00
42859;BME280;28505;56.970;40.998;2023-04-12T21:31:46;100089.06;;;2.72;100.00
42859;BME280;28505;56.970;40.998;2023-04-12T21:37:18;100084.66;;;2.49;100.00
42859;BME280;28505;56.970;40.998;2023-04-12T21:42:45;100102.41;;;2.60;100.00
42859;BME280;28505;56.970;40.998;2023-04-12T21:48:07;100112.84;;;2.62;100.00
42859;BME280;28505;56.970;40.998;2023-04-12T21:53:29;100109.34;;;2.61;100.00
42859;BME280;28505;56.970;40.998;2023-04-12T21:58:51;100092.84;;;2.47;100.00
42859;BME280;28505;56.970;40.998;2023-04-12T22:04:13;100109.50;;;2.54;100.00
42859;BME280;28505;56.970;40.998;2023-04-12T22:09:36;100096.38;;;2.36;100.00
42859;BME280;28505;56.970;40.998;2023-04-12T22:14:57;100107.69;;;2.31;100.00
42859;BME280;28505;56.970;40.998;2023-04-12T22:20:20;100104.28;;;2.19;100.00
42859;BME280;28505;56.970;40.998;2023-04-12T22:25:43;100081.63;;;2.05;100.00
42859;BME280;28505;56.970;40.998;2023-04-12T22:31:06;100091.69;;;2.03;100.00
42859;BME280;28505;56.970;40.998;2023-04-12T22:36:29;100066.50;;;1.82;100.00
42859;BME280;28505;56.970;40.998;2023-04-12T22:41:58;100075.88;;;1.84;100.00
42859;BME280;28505;56.970;40.998;2023-04-12T22:47:20;100058.19;;;1.78;100.00
42859;BME280;28505;56.970;40.998;2023-04-12T22:52:42;100071.03;;;1.81;100.00
42859;BME280;28505;56.970;40.998;2023-04-12T22:58:04;100053.34;;;1.52;100.00
42859;BME280;28505;56.970;40.998;2023-04-12T23:03:26;100059.13;;;1.49;100.00
42859;BME280;28505;56.970;40.998;2023-04-12T23:08:49;100075.78;;;1.44;100.00
42859;BME280;28505;56.970;40.998;2023-04-12T23:14:11;100043.19;;;1.25;100.00
42859;BME280;28505;56.970;40.998;2023-04-12T23:19:34;100083.03;;;1.49;100.00
42859;BME280;28505;56.970;40.998;2023-04-12T23:24:59;100079.69;;;1.42;100.00
42859;BME280;28505;56.970;40.998;2023-04-12T23:30:23;100078.19;;;1.46;100.00
42859;BME280;28505;56.970;40.998;2023-04-12T23:35:50;100064.06;;;1.33;100.00
42859;BME280;28505;56.970;40.998;2023-04-12T23:41:23;100065.59;;;1.29;100.00
42859;BME280;28505;56.970;40.998;2023-04-12T23:46:48;100043.63;;;1.22;100.00
42859;BME280;28505;56.970;40.998;2023-04-12T23:52:09;100042.94;;;1.15;100.00
42859;BME280;28505;56.970;40.998;2023-04-12T23:57:31;100035.31;;;1.07;100.00
